Local area metar reports


Our local metar:
KGOO 262040Z AUTO 19003KT 10SM BKN008 BKN016 OVC025 09/08 A3003 RMK AO1

Decoded:

station                        KGOO
observed_date Tue, 26 Mar 2019 20:40:00 +0000
observed_age 20 min. ago
wind_speed 3
wind_direction 190
wind_direction_label S
visibility_report 10 miles
present_weather_report Dry
clouds_report Broken sky at 800 feet; broken sky at 1600 feet; overcast sky at 2500 feet
cloud_height 800
temperature_f 48
dew_point_f 46
humidity 94
wind_chill 7
wind_chill_f 45
barometer 30.03
remarks AO1

Auburn metar:
KAUN 262055Z AUTO 20005G11KT 10SM SCT022 BKN027 OVC038 14/09 A3003 RMK A01

Decoded:

station                        KAUN
observed_date Tue, 26 Mar 2019 20:55:00 +0000
observed_age 5 min. ago
wind_speed 5
wind_gust_speed 11
wind_direction 200
wind_direction_label SSW
visibility_report 10 miles
present_weather_report Dry
clouds_report Scattered at 2200 feet; broken sky at 2700 feet; overcast sky at 3800 feet
cloud_height 2200
temperature_f 57
dew_point_f 48
humidity 72
barometer 30.03
remarks A01

Lincoln metar:
KLHM 262055Z AUTO 19005KT 10SM SCT036 SCT046 17/08 A3002 RMK AO1

Decoded:

station                        KLHM
observed_date Tue, 26 Mar 2019 20:55:00 +0000
observed_age 5 min. ago
wind_speed 5
wind_direction 190
wind_direction_label S
visibility_report 10 miles
present_weather_report Dry
clouds_report Scattered at 3600 feet; scattered at 4600 feet
cloud_height 3600
temperature_f 63
dew_point_f 46
humidity 56
barometer 30.02
remarks AO1